Main page
METAR-TAF:

METAR-TAF

Airports :

Pago Pago International Airport

Pago Pago, United States Minor Outlying Islands

latitude: 14-20S, longitude: 170-43W, elevation: 3 m

Current weather observation

The report was made 41 minutes ago, at 04:50 UTC
Calm wind
Temperature 28°C
Humidity 84%
Pressure 1008 hPa
Visibility: 17.7 km
Few clouds at a height of 2300 ft
Scattered clouds at a height of 4000 ft
Broken clouds at a height of 10000 ft
Overcast at a height of 20000 ft

METAR: NSTU 240450Z 00000KT 11SM FEW023 SCT040 BKN100 OVC200 28/25 A2978 RMK SLP085 T02770252

Time: 18:31 (05:31 UTC)

Forecast

The report was made 5 hours and 51 minutes ago, at 23:40 UTC
Forecast valid from 24 at 00 UTC to 24 at 24 UTC
Wind 5 kt from variable directions
Visibility: 10 km
Scattered clouds at a height of 2000 ft
Scattered clouds at a height of 10000 ft
showers in vicinity

TAF: NSTU 232340Z 2400/2424 VRB05KT P6SM VCSH SCT020 SCT100

Weather observations and forecasts of more than 4000 airports (METAR and TAF reports).

The available stations are represented by yellow and red dots on the map.

Hover mouse over dot to see the name of the station.

Then click to see weather observations and forecasts.

To change the map : click on the green buttons with a black cross to zoom in, on the green button with a dash to zoom out, or on the green arrows for adjacent maps.


METAR-TAF: